createdAt,value
2023-04-23T00:00:17.730Z,22.14
2023-04-23T00:02:44.687Z,22.18
2023-04-23T00:05:13.077Z,22.33
2023-04-23T00:07:39.995Z,22.36
2023-04-23T00:10:08.930Z,22.51
2023-04-23T00:12:35.673Z,22.68
2023-04-23T00:15:02.571Z,22.81
2023-04-23T00:17:29.377Z,22.75
2023-04-23T00:19:56.198Z,22.89
2023-04-23T00:22:22.942Z,22.87
2023-04-23T00:24:49.746Z,22.89
2023-04-23T00:27:18.018Z,20.77
2023-04-23T00:29:46.248Z,19.03
2023-04-23T00:32:14.458Z,19.90
2023-04-23T00:34:41.508Z,20.97
2023-04-23T00:37:08.680Z,21.47
2023-04-23T00:39:37.479Z,21.75
2023-04-23T00:42:10.367Z,22.15
2023-04-23T00:44:37.398Z,22.24
2023-04-23T00:47:04.167Z,22.43
2023-04-23T00:49:30.901Z,22.35
2023-04-23T00:51:57.651Z,22.42
2023-04-23T00:54:24.394Z,22.67
2023-04-23T00:56:51.204Z,22.52
2023-04-23T00:59:17.974Z,22.75
2023-04-23T01:01:45.562Z,22.74
2023-04-23T01:04:12.481Z,22.75
2023-04-23T01:06:39.488Z,23.01
2023-04-23T01:09:06.393Z,21.81
2023-04-23T01:11:33.256Z,19.22
2023-04-23T01:14:00.200Z,19.50
2023-04-23T01:16:27.002Z,20.79
2023-04-23T01:18:53.838Z,21.32
2023-04-23T01:21:20.931Z,21.74
2023-04-23T01:23:47.729Z,21.96
2023-04-23T01:26:14.895Z,22.04
2023-04-23T01:28:41.634Z,22.16
2023-04-23T01:31:08.473Z,22.22
2023-04-23T01:33:35.793Z,22.52
2023-04-23T01:36:02.545Z,22.49
2023-04-23T01:38:29.315Z,22.58
2023-04-23T01:40:56.063Z,22.61
2023-04-23T01:43:22.791Z,22.69
2023-04-23T01:45:49.643Z,22.74
2023-04-23T01:48:16.438Z,22.83
2023-04-23T01:50:43.212Z,22.29
2023-04-23T01:53:10.275Z,19.59
2023-04-23T01:55:37.013Z,18.24
2023-04-23T01:58:03.878Z,19.90
2023-04-23T02:00:30.885Z,20.95
2023-04-23T02:02:57.762Z,21.26
2023-04-23T02:05:24.666Z,21.72
2023-04-23T02:07:51.442Z,21.82
2023-04-23T02:10:21.281Z,22.06
2023-04-23T02:12:48.063Z,22.10
2023-04-23T02:15:14.818Z,22.13
2023-04-23T02:17:41.646Z,22.25
2023-04-23T02:20:09.575Z,22.35
2023-04-23T02:22:36.615Z,22.40
2023-04-23T02:25:03.446Z,22.51
2023-04-23T02:27:30.272Z,22.53
2023-04-23T02:29:57.030Z,22.65
2023-04-23T02:32:23.835Z,22.65
2023-04-23T02:34:50.924Z,22.81
2023-04-23T02:37:17.793Z,22.89
2023-04-23T02:39:44.575Z,22.83
2023-04-23T02:42:11.333Z,22.85
2023-04-23T02:44:38.130Z,19.84
2023-04-23T02:47:05.003Z,18.32
2023-04-23T02:49:31.837Z,19.54
2023-04-23T02:51:58.588Z,20.65
2023-04-23T02:54:25.465Z,21.28
2023-04-23T02:56:52.232Z,21.61
2023-04-23T02:59:19.005Z,21.71
2023-04-23T03:01:45.761Z,22.00
2023-04-23T03:04:12.744Z,22.08
2023-04-23T03:06:39.573Z,22.10
2023-04-23T03:09:06.555Z,22.23
2023-04-23T03:11:33.304Z,22.39
2023-04-23T03:14:00.063Z,22.42
2023-04-23T03:16:26.877Z,22.55
2023-04-23T03:18:53.679Z,22.55
2023-04-23T03:21:20.508Z,22.63
2023-04-23T03:23:47.353Z,22.61
2023-04-23T03:26:14.083Z,22.71
2023-04-23T03:28:40.858Z,22.80
2023-04-23T03:31:07.718Z,22.59
2023-04-23T03:33:34.675Z,19.45
2023-04-23T03:36:01.441Z,18.56
2023-04-23T03:38:28.212Z,20.35
2023-04-23T03:40:55.120Z,21.09
2023-04-23T03:43:21.888Z,21.54
2023-04-23T03:45:48.683Z,21.85
2023-04-23T03:48:15.993Z,21.90
2023-04-23T03:50:42.815Z,22.01
2023-04-23T03:53:10.162Z,22.27
2023-04-23T03:55:36.920Z,22.18
2023-04-23T03:58:03.685Z,22.38
2023-04-23T04:00:30.510Z,22.37
2023-04-23T04:02:57.424Z,22.50
2023-04-23T04:05:24.812Z,22.54
2023-04-23T04:07:51.593Z,22.58
2023-04-23T04:10:18.454Z,22.69
2023-04-23T04:12:47.720Z,22.78
2023-04-23T04:15:14.583Z,22.76
2023-04-23T04:17:41.421Z,22.83
2023-04-23T04:20:08.413Z,22.98
2023-04-23T04:22:35.178Z,22.87
2023-04-23T04:25:01.922Z,19.81
2023-04-23T04:27:28.681Z,18.37
2023-04-23T04:29:55.722Z,19.77
2023-04-23T04:32:23.283Z,20.84
2023-04-23T04:34:50.603Z,21.36
2023-04-23T04:37:17.615Z,21.66
2023-04-23T04:39:44.497Z,21.89
2023-04-23T04:42:12.940Z,22.20
2023-04-23T04:44:39.941Z,22.08
2023-04-23T04:47:07.938Z,22.18
2023-04-23T04:49:34.778Z,22.33
2023-04-23T04:52:01.836Z,22.45
2023-04-23T04:54:28.659Z,22.55
2023-04-23T04:56:55.488Z,22.60
2023-04-23T04:59:22.233Z,22.67
2023-04-23T05:01:48.972Z,22.63
2023-04-23T05:04:16.071Z,22.75
2023-04-23T05:06:42.936Z,22.89
2023-04-23T05:09:10.469Z,22.80
2023-04-23T05:11:37.330Z,19.74
2023-04-23T05:14:04.513Z,18.29
2023-04-23T05:16:31.387Z,19.46
2023-04-23T05:18:58.206Z,20.76
2023-04-23T05:21:27.028Z,21.30
2023-04-23T05:23:53.795Z,21.55
2023-04-23T05:26:20.663Z,21.77
2023-04-23T05:28:47.415Z,21.91
2023-04-23T05:31:14.206Z,22.01
2023-04-23T05:33:49.385Z,22.25
2023-04-23T05:36:17.185Z,22.26
2023-04-23T05:38:43.987Z,22.28
2023-04-23T05:41:10.820Z,22.32
2023-04-23T05:43:37.579Z,22.39
2023-04-23T05:46:06.351Z,22.58
2023-04-23T05:48:33.263Z,22.57
2023-04-23T05:51:00.175Z,22.65
2023-04-23T05:53:26.994Z,22.77
2023-04-23T05:55:53.779Z,22.83
2023-04-23T05:58:20.667Z,22.84
2023-04-23T06:00:47.496Z,22.97
2023-04-23T06:03:14.775Z,21.49
2023-04-23T06:05:43.177Z,19.03
2023-04-23T06:08:10.144Z,18.12
2023-04-23T06:10:36.972Z,20.17
2023-04-23T06:13:03.759Z,20.95
2023-04-23T06:15:30.715Z,21.49
2023-04-23T06:17:57.846Z,21.59
2023-04-23T06:20:24.743Z,21.76
2023-04-23T06:22:51.514Z,21.94
2023-04-23T06:25:18.305Z,22.16
2023-04-23T06:27:45.159Z,22.25
2023-04-23T06:30:11.965Z,22.29
2023-04-23T06:32:38.790Z,22.31
2023-04-23T06:35:06.216Z,22.50
2023-04-23T06:37:33.190Z,22.59
2023-04-23T06:40:00.246Z,22.69
2023-04-23T06:42:27.090Z,22.67
2023-04-23T06:44:53.929Z,22.76
2023-04-23T06:47:20.706Z,22.71
2023-04-23T06:49:47.517Z,22.82
2023-04-23T06:52:14.282Z,22.78
2023-04-23T06:54:41.380Z,22.94
2023-04-23T06:57:08.315Z,21.18
2023-04-23T06:59:35.109Z,19.01
2023-04-23T07:02:02.038Z,18.50
2023-04-23T07:04:28.827Z,20.28
2023-04-23T07:06:55.620Z,21.03
2023-04-23T07:09:23.039Z,21.47
2023-04-23T07:11:49.784Z,21.79
2023-04-23T07:14:16.546Z,21.90
2023-04-23T07:16:43.340Z,22.03
2023-04-23T07:19:10.319Z,22.24
2023-04-23T07:21:37.219Z,22.16
2023-04-23T07:24:06.741Z,22.45
2023-04-23T07:26:33.689Z,22.39
2023-04-23T07:29:01.266Z,22.53
2023-04-23T07:31:28.458Z,22.60
2023-04-23T07:33:55.762Z,22.63
2023-04-23T07:36:22.530Z,22.68
2023-04-23T07:38:49.603Z,22.71
2023-04-23T07:41:16.374Z,22.89
2023-04-23T07:43:43.127Z,22.97
2023-04-23T07:46:09.887Z,22.96
2023-04-23T07:48:36.644Z,21.08
2023-04-23T07:51:03.417Z,18.91
2023-04-23T07:53:30.171Z,18.65
2023-04-23T07:55:56.938Z,20.37
2023-04-23T07:58:23.764Z,21.10
2023-04-23T08:00:50.743Z,21.54
2023-04-23T08:03:17.640Z,21.67
2023-04-23T08:05:44.732Z,21.89
2023-04-23T08:08:11.523Z,21.95
2023-04-23T08:10:38.252Z,22.14
2023-04-23T08:13:05.017Z,22.21
2023-04-23T08:15:31.830Z,22.25
2023-04-23T08:17:58.619Z,22.50
2023-04-23T08:20:25.595Z,22.41
2023-04-23T08:22:53.625Z,22.63
2023-04-23T08:25:20.987Z,22.67
2023-04-23T08:27:47.873Z,22.61
2023-04-23T08:30:14.685Z,22.86
2023-04-23T08:32:41.548Z,22.76
2023-04-23T08:35:08.487Z,22.85
2023-04-23T08:37:35.329Z,22.91
2023-04-23T08:40:02.091Z,19.93
2023-04-23T08:42:28.842Z,19.34
2023-04-23T08:44:55.571Z,20.39
2023-04-23T08:47:22.318Z,21.23
2023-04-23T08:49:50.595Z,21.54
2023-04-23T08:52:17.797Z,21.83
2023-04-23T08:54:44.538Z,22.09
2023-04-23T08:57:11.299Z,22.17
2023-04-23T08:59:38.023Z,22.29
2023-04-23T09:02:09.767Z,22.42
2023-04-23T09:04:36.807Z,22.42
2023-04-23T09:07:04.537Z,22.57
2023-04-23T09:09:31.282Z,22.60
2023-04-23T09:11:58.043Z,22.73
2023-04-23T09:14:25.472Z,22.69
2023-04-23T09:16:52.250Z,22.75
2023-04-23T09:19:19.008Z,22.90
2023-04-23T09:21:46.164Z,22.88
2023-04-23T09:24:13.011Z,21.64
2023-04-23T09:26:39.768Z,19.65
2023-04-23T09:29:06.498Z,19.64
2023-04-23T09:31:33.392Z,20.99
2023-04-23T09:34:00.212Z,21.47
2023-04-23T09:36:28.237Z,21.78
2023-04-23T09:38:55.042Z,22.01
2023-04-23T09:41:21.886Z,22.18
2023-04-23T09:43:48.809Z,22.27
2023-04-23T09:46:15.562Z,22.44
2023-04-23T09:48:45.837Z,22.50
2023-04-23T09:51:12.582Z,22.61
2023-04-23T09:53:40.310Z,22.69
2023-04-23T09:56:07.151Z,22.73
2023-04-23T09:58:33.978Z,22.86
2023-04-23T10:01:00.755Z,22.84
2023-04-23T10:03:27.702Z,22.76
2023-04-23T10:06:01.321Z,20.23
2023-04-23T10:08:29.225Z,20.06
2023-04-23T10:11:09.581Z,20.91
2023-04-23T10:13:40.923Z,21.77
2023-04-23T10:16:21.200Z,21.89
2023-04-23T10:18:49.684Z,22.00
2023-04-23T10:21:16.485Z,22.33
2023-04-23T10:23:43.308Z,22.35
2023-04-23T10:26:10.098Z,22.40
2023-04-23T10:28:36.997Z,22.49
2023-04-23T10:31:03.874Z,22.62
2023-04-23T10:33:37.332Z,22.62
2023-04-23T10:36:09.607Z,22.65
2023-04-23T10:38:39.292Z,22.76
2023-04-23T10:41:12.384Z,22.87
2023-04-23T10:43:39.155Z,22.92
2023-04-23T10:46:06.021Z,21.94
2023-04-23T10:48:32.799Z,19.86
2023-04-23T10:51:17.445Z,19.65
2023-04-23T10:53:46.539Z,21.17
2023-04-23T10:56:13.481Z,21.69
2023-04-23T10:58:40.224Z,21.99
2023-04-23T11:01:06.961Z,22.15
2023-04-23T11:03:34.209Z,22.19
2023-04-23T11:06:01.662Z,22.35
2023-04-23T11:08:28.396Z,22.48
2023-04-23T11:10:56.363Z,22.57
2023-04-23T11:13:23.694Z,22.46
2023-04-23T11:15:50.525Z,22.55
2023-04-23T11:18:17.331Z,22.75
2023-04-23T11:20:44.079Z,22.91
2023-04-23T11:23:10.929Z,22.90
2023-04-23T11:25:37.689Z,22.85
2023-04-23T11:28:04.416Z,20.06
2023-04-23T11:30:31.273Z,19.74
2023-04-23T11:32:59.811Z,20.67
2023-04-23T11:35:33.420Z,21.40
2023-04-23T11:38:00.393Z,21.79
2023-04-23T11:40:30.283Z,22.06
2023-04-23T11:42:57.562Z,22.11
2023-04-23T11:45:24.373Z,22.36
2023-04-23T11:47:51.162Z,22.44
2023-04-23T11:50:18.010Z,22.51
2023-04-23T11:52:44.755Z,22.58
2023-04-23T11:55:12.768Z,22.58
2023-04-23T11:57:39.492Z,22.72
2023-04-23T12:00:06.341Z,22.79
2023-04-23T12:02:33.229Z,22.90
2023-04-23T12:05:00.072Z,22.94
2023-04-23T12:07:27.299Z,22.97
2023-04-23T12:09:54.040Z,22.18
2023-04-23T12:12:21.016Z,20.24
2023-04-23T12:14:47.776Z,20.13
2023-04-23T12:17:14.613Z,21.23
2023-04-23T12:19:44.674Z,21.83
2023-04-23T12:22:11.434Z,22.04
2023-04-23T12:24:38.168Z,22.30
2023-04-23T12:27:05.044Z,22.45
2023-04-23T12:29:31.878Z,22.50
2023-04-23T12:31:58.660Z,22.50
2023-04-23T12:34:25.477Z,22.52
2023-04-23T12:36:52.264Z,22.76
2023-04-23T12:39:19.008Z,22.73
2023-04-23T12:41:45.771Z,22.81
2023-04-23T12:44:12.538Z,22.87
2023-04-23T12:46:39.280Z,22.84
2023-04-23T12:49:06.342Z,22.54
2023-04-23T12:51:33.104Z,20.06
2023-04-23T12:53:59.901Z,19.91
2023-04-23T12:56:26.704Z,20.93
2023-04-23T12:58:53.516Z,21.72
2023-04-23T13:01:20.249Z,21.95
2023-04-23T13:03:47.252Z,22.25
2023-04-23T13:06:14.074Z,22.39
2023-04-23T13:08:40.841Z,22.43
2023-04-23T13:11:07.583Z,22.46
2023-04-23T13:13:34.350Z,22.70
2023-04-23T13:16:01.290Z,22.74
2023-04-23T13:18:28.037Z,22.77
2023-04-23T13:20:54.839Z,22.78
2023-04-23T13:23:21.663Z,22.80
2023-04-23T13:25:48.428Z,22.76
2023-04-23T13:28:15.669Z,22.95
2023-04-23T13:30:42.561Z,21.93
2023-04-23T13:33:09.372Z,20.09
2023-04-23T13:35:37.633Z,19.80
2023-04-23T13:38:04.453Z,21.20
2023-04-23T13:40:31.196Z,21.83
2023-04-23T13:42:58.002Z,22.11
2023-04-23T13:45:24.795Z,22.27
2023-04-23T13:47:51.636Z,22.39
2023-04-23T13:50:18.428Z,22.41
2023-04-23T13:52:45.230Z,22.56
2023-04-23T13:55:11.979Z,22.52
2023-04-23T13:57:38.764Z,22.83
2023-04-23T14:00:05.718Z,22.71
2023-04-23T14:02:32.650Z,22.85
2023-04-23T14:04:59.509Z,23.00
2023-04-23T14:07:26.248Z,23.02
2023-04-23T14:09:53.048Z,21.25
2023-04-23T14:12:19.905Z,20.10
2023-04-23T14:14:46.660Z,20.13
2023-04-23T14:17:13.413Z,21.39
2023-04-23T14:19:40.415Z,21.74
2023-04-23T14:22:07.322Z,21.97
2023-04-23T14:24:34.125Z,22.13
2023-04-23T14:29:28.789Z,22.36
2023-04-23T14:31:55.911Z,22.42
2023-04-23T14:34:22.740Z,22.54
2023-04-23T14:36:49.586Z,22.64
2023-04-23T14:39:16.787Z,22.83
2023-04-23T14:41:43.574Z,22.85
2023-04-23T14:44:10.315Z,22.86
2023-04-23T14:46:37.115Z,23.09
2023-04-23T14:49:03.971Z,20.46
2023-04-23T14:51:31.171Z,19.89
2023-04-23T14:53:57.921Z,20.46
2023-04-23T14:56:24.751Z,21.43
2023-04-23T14:58:51.494Z,21.84
2023-04-23T15:01:18.376Z,22.02
2023-04-23T15:03:45.502Z,22.26
2023-04-23T15:06:12.443Z,22.41
2023-04-23T15:08:39.301Z,22.43
2023-04-23T15:11:12.923Z,22.55
2023-04-23T15:13:39.665Z,22.50
2023-04-23T15:16:06.470Z,22.62
2023-04-23T15:18:33.892Z,22.77
2023-04-23T15:21:03.637Z,22.85
2023-04-23T15:23:30.528Z,22.83
2023-04-23T15:25:57.308Z,22.90
2023-04-23T15:28:24.907Z,20.26
2023-04-23T15:30:51.679Z,20.06
2023-04-23T15:33:21.474Z,20.81
2023-04-23T15:35:51.081Z,21.55
2023-04-23T15:38:17.832Z,21.99
2023-04-23T15:40:44.674Z,22.09
2023-04-23T15:43:12.340Z,22.24
2023-04-23T15:45:39.105Z,22.38
2023-04-23T15:48:05.985Z,22.51
2023-04-23T15:50:32.771Z,22.68
2023-04-23T15:53:01.441Z,22.59
2023-04-23T15:55:28.270Z,22.65
2023-04-23T15:57:55.117Z,22.80
2023-04-23T16:00:21.856Z,22.88
2023-04-23T16:02:48.701Z,22.90
2023-04-23T16:05:15.557Z,21.06
2023-04-23T16:07:42.384Z,19.64
2023-04-23T16:10:09.227Z,19.84
2023-04-23T16:12:36.819Z,21.18
2023-04-23T16:15:03.723Z,21.63
2023-04-23T16:17:31.269Z,21.98
2023-04-23T16:19:58.082Z,22.15
2023-04-23T16:22:25.415Z,22.27
2023-04-23T16:24:52.234Z,22.38
2023-04-23T16:27:18.982Z,22.43
2023-04-23T16:29:45.744Z,22.50
2023-04-23T16:32:12.552Z,22.66
2023-04-23T16:34:39.353Z,22.72
2023-04-23T16:37:06.233Z,22.87
2023-04-23T16:39:33.214Z,22.77
2023-04-23T16:42:00.028Z,22.80
2023-04-23T16:44:26.780Z,19.96
2023-04-23T16:46:53.584Z,19.66
2023-04-23T16:49:21.785Z,20.67
2023-04-23T16:51:48.923Z,21.46
2023-04-23T16:54:15.722Z,21.76
2023-04-23T16:56:45.150Z,22.06
2023-04-23T16:59:11.872Z,22.18
2023-04-23T17:01:38.672Z,22.35
2023-04-23T17:04:05.629Z,22.38
2023-04-23T17:06:32.516Z,22.49
2023-04-23T17:08:59.312Z,22.49
2023-04-23T17:11:26.102Z,22.55
2023-04-23T17:13:52.832Z,22.72
2023-04-23T17:16:19.699Z,22.73
2023-04-23T17:18:46.575Z,22.84
2023-04-23T17:21:13.307Z,22.91
2023-04-23T17:23:40.299Z,20.74
2023-04-23T17:26:07.162Z,20.26
2023-04-23T17:28:33.937Z,20.85
2023-04-23T17:31:01.262Z,21.56
2023-04-23T17:33:28.322Z,21.86
2023-04-23T17:35:55.757Z,22.14
2023-04-23T17:38:22.743Z,22.14
2023-04-23T17:40:49.720Z,22.31
2023-04-23T17:43:16.585Z,22.52
2023-04-23T17:45:43.401Z,22.53
2023-04-23T17:48:10.169Z,22.59
2023-04-23T17:50:36.912Z,22.58
2023-04-23T17:53:03.849Z,22.83
2023-04-23T17:55:32.866Z,22.84
2023-04-23T17:58:01.058Z,22.90
2023-04-23T18:00:28.574Z,21.48
2023-04-23T18:02:56.010Z,19.83
2023-04-23T18:05:22.894Z,20.23
2023-04-23T18:07:49.704Z,21.36
2023-04-23T18:10:16.446Z,21.68
2023-04-23T18:12:43.250Z,21.94
2023-04-23T18:15:12.231Z,22.23
2023-04-23T18:17:39.055Z,22.46
2023-04-23T18:20:09.820Z,22.35
2023-04-23T18:22:37.299Z,22.45
2023-04-23T18:25:04.325Z,22.62
2023-04-23T18:27:33.414Z,22.54
2023-04-23T18:30:00.907Z,22.67
2023-04-23T18:32:34.564Z,22.77
2023-04-23T18:35:02.454Z,22.99
2023-04-23T18:37:29.378Z,22.92
2023-04-23T18:39:58.297Z,21.27
2023-04-23T18:42:25.134Z,19.39
2023-04-23T18:44:52.119Z,19.85
2023-04-23T18:47:19.112Z,21.26
2023-04-23T18:49:45.887Z,21.55
2023-04-23T18:52:12.720Z,21.91
2023-04-23T18:54:39.453Z,22.07
2023-04-23T18:57:06.269Z,22.21
2023-04-23T18:59:35.721Z,22.22
2023-04-23T19:02:03.676Z,22.35
2023-04-23T19:04:30.917Z,22.48
2023-04-23T19:06:57.782Z,22.53
2023-04-23T19:09:24.607Z,22.89
2023-04-23T19:11:51.371Z,22.83
2023-04-23T19:14:19.365Z,22.91
2023-04-23T19:16:46.172Z,22.87
2023-04-23T19:19:12.984Z,19.83
2023-04-23T19:21:39.806Z,19.30
2023-04-23T19:24:06.618Z,20.32
2023-04-23T19:26:33.399Z,21.23
2023-04-23T19:29:00.282Z,21.50
2023-04-23T19:31:27.498Z,21.88
2023-04-23T19:33:54.373Z,22.04
2023-04-23T19:36:21.927Z,22.15
2023-04-23T19:38:48.652Z,22.26
2023-04-23T19:41:15.481Z,22.45
2023-04-23T19:43:42.264Z,22.47
2023-04-23T19:46:09.011Z,22.67
2023-04-23T19:48:35.831Z,22.58
2023-04-23T19:51:02.569Z,22.64
2023-04-23T19:53:30.452Z,22.77
2023-04-23T19:55:57.206Z,22.86
2023-04-23T19:58:23.948Z,22.82
2023-04-23T20:00:52.082Z,19.91
2023-04-23T20:03:18.946Z,18.29
2023-04-23T20:05:46.053Z,19.32
2023-04-23T20:08:15.173Z,20.76
2023-04-23T20:10:42.097Z,21.19
2023-04-23T20:13:08.847Z,21.58
2023-04-23T20:15:36.616Z,21.72
2023-04-23T20:18:03.512Z,21.84
2023-04-23T20:20:30.403Z,22.09
2023-04-23T20:22:57.215Z,22.17
2023-04-23T20:25:25.792Z,22.33
2023-04-23T20:27:52.800Z,22.28
2023-04-23T20:30:19.672Z,22.44
2023-04-23T20:32:46.642Z,22.56
2023-04-23T20:35:13.667Z,22.60
2023-04-23T20:37:40.717Z,22.53
2023-04-23T20:40:07.809Z,22.63
2023-04-23T20:42:38.904Z,22.80
2023-04-23T20:45:07.561Z,22.84
2023-04-23T20:47:34.589Z,22.89
2023-04-23T20:50:01.590Z,21.27
2023-04-23T20:52:28.351Z,18.76
2023-04-23T20:54:55.248Z,18.39
2023-04-23T20:57:21.970Z,20.27
2023-04-23T20:59:48.759Z,21.18
2023-04-23T21:02:15.613Z,21.39
2023-04-23T21:04:42.446Z,21.76
2023-04-23T21:07:09.225Z,21.82
2023-04-23T21:09:35.986Z,22.02
2023-04-23T21:12:02.745Z,22.04
2023-04-23T21:14:29.470Z,22.22
2023-04-23T21:16:56.844Z,22.34
2023-04-23T21:19:23.587Z,22.43
2023-04-23T21:21:50.372Z,22.45
2023-04-23T21:24:17.125Z,22.55
2023-04-23T21:26:43.870Z,22.59
2023-04-23T21:29:11.339Z,22.71
2023-04-23T21:31:38.628Z,22.79
2023-04-23T21:34:05.416Z,22.85
2023-04-23T21:36:32.426Z,22.63
2023-04-23T21:38:59.289Z,19.54
2023-04-23T21:41:26.121Z,17.98
2023-04-23T21:43:52.865Z,19.30
2023-04-23T21:46:19.631Z,20.50
2023-04-23T21:48:47.057Z,21.06
2023-04-23T21:51:14.217Z,21.33
2023-04-23T21:53:41.047Z,21.64
2023-04-23T21:56:07.810Z,21.77
2023-04-23T21:58:35.808Z,21.86
2023-04-23T22:01:02.617Z,22.03
2023-04-23T22:03:38.629Z,22.17
2023-04-23T22:06:06.263Z,22.27
2023-04-23T22:08:33.065Z,22.44
2023-04-23T22:10:59.850Z,22.52
2023-04-23T22:13:26.695Z,22.46
2023-04-23T22:15:53.436Z,22.62
2023-04-23T22:18:20.456Z,22.65
2023-04-23T22:20:50.787Z,22.71
2023-04-23T22:23:17.547Z,22.89
2023-04-23T22:25:44.665Z,22.71
2023-04-23T22:28:11.440Z,22.83
2023-04-23T22:30:38.188Z,23.00
2023-04-23T22:33:05.143Z,21.16
2023-04-23T22:35:32.129Z,18.70
2023-04-23T22:37:58.927Z,18.16
2023-04-23T22:40:25.681Z,20.17
2023-04-23T22:42:52.513Z,20.89
2023-04-23T22:45:19.254Z,21.19
2023-04-23T22:47:46.439Z,21.44
2023-04-23T22:50:13.216Z,21.66
2023-04-23T22:52:40.483Z,21.89
2023-04-23T22:55:07.344Z,22.01
2023-04-23T22:57:34.137Z,22.06
2023-04-23T23:00:00.923Z,22.15
2023-04-23T23:02:27.787Z,22.29
2023-04-23T23:04:54.805Z,22.49
2023-04-23T23:07:21.575Z,22.56
2023-04-23T23:09:48.357Z,22.54
2023-04-23T23:12:15.183Z,22.75
2023-04-23T23:14:41.908Z,22.79
2023-04-23T23:17:08.649Z,22.69
2023-04-23T23:19:35.562Z,22.81
2023-04-23T23:22:02.307Z,22.82
2023-04-23T23:24:29.043Z,19.90
2023-04-23T23:26:55.832Z,18.89
2023-04-23T23:29:22.682Z,20.18
2023-04-23T23:31:49.612Z,21.17
2023-04-23T23:34:16.451Z,21.58
2023-04-23T23:36:45.005Z,21.83
2023-04-23T23:39:13.108Z,21.94
2023-04-23T23:41:39.885Z,22.07
2023-04-23T23:44:06.708Z,22.39
2023-04-23T23:46:33.571Z,22.37
2023-04-23T23:49:00.522Z,22.46
2023-04-23T23:51:28.912Z,22.53
2023-04-23T23:53:55.704Z,22.61
2023-04-23T23:56:22.538Z,22.57
2023-04-23T23:58:49.307Z,22.75
